createdAt,value
2022-12-06T00:01:14.595Z,7.28
2022-12-06T00:03:45.504Z,7.29
2022-12-06T00:06:19.219Z,7.29
2022-12-06T00:08:49.769Z,7.32
2022-12-06T00:11:20.150Z,7.32
2022-12-06T00:13:49.072Z,7.30
2022-12-06T00:16:18.500Z,7.29
2022-12-06T00:18:48.515Z,7.32
2022-12-06T00:21:23.139Z,7.34
2022-12-06T00:23:55.139Z,7.36
2022-12-06T00:26:25.601Z,7.30
2022-12-06T00:28:54.406Z,7.30
2022-12-06T00:31:24.499Z,7.29
2022-12-06T00:33:52.984Z,7.27
2022-12-06T00:36:22.819Z,7.26
2022-12-06T00:38:52.737Z,7.26
2022-12-06T00:41:22.159Z,7.23
2022-12-06T00:43:51.105Z,7.18
2022-12-06T00:46:21.316Z,7.15
2022-12-06T00:48:50.537Z,7.15
2022-12-06T00:51:20.003Z,7.15
2022-12-06T00:53:48.757Z,7.15
2022-12-06T00:56:19.417Z,7.12
2022-12-06T00:58:47.764Z,7.10
2022-12-06T01:01:18.128Z,7.15
2022-12-06T01:03:47.076Z,7.06
2022-12-06T01:06:17.097Z,7.11
2022-12-06T01:08:46.075Z,7.10
2022-12-06T01:11:16.415Z,7.12
2022-12-06T01:13:45.882Z,7.20
2022-12-06T01:16:16.047Z,7.21
2022-12-06T01:18:45.419Z,7.15
2022-12-06T01:21:16.070Z,7.10
2022-12-06T01:23:44.792Z,7.08
2022-12-06T01:26:17.531Z,7.10
2022-12-06T01:28:47.464Z,7.09
2022-12-06T01:31:16.501Z,7.09
2022-12-06T01:33:45.413Z,7.08
2022-12-06T01:36:18.223Z,7.01
2022-12-06T01:38:50.832Z,6.98
2022-12-06T01:41:19.335Z,7.03
2022-12-06T01:43:49.356Z,7.05
2022-12-06T01:46:29.405Z,7.06
2022-12-06T01:49:04.054Z,7.06
2022-12-06T01:51:32.175Z,7.05
2022-12-06T01:54:03.099Z,7.07
2022-12-06T01:56:31.681Z,7.04
2022-12-06T01:59:01.515Z,7.01
2022-12-06T02:01:32.705Z,7.00
2022-12-06T02:04:02.348Z,7.02
2022-12-06T02:06:32.250Z,7.05
2022-12-06T02:09:03.485Z,7.01
2022-12-06T02:11:35.227Z,7.01
2022-12-06T02:14:08.490Z,7.02
2022-12-06T02:16:56.412Z,7.02
2022-12-06T02:19:45.400Z,7.04
2022-12-06T02:22:20.898Z,7.03
2022-12-06T02:25:25.114Z,6.99
2022-12-06T02:28:12.173Z,6.99
2022-12-06T02:30:48.482Z,6.98
2022-12-06T02:33:23.577Z,7.00
2022-12-06T02:35:59.524Z,7.08
2022-12-06T02:38:36.190Z,7.08
2022-12-06T02:41:10.322Z,7.10
2022-12-06T02:43:42.370Z,7.13
2022-12-06T02:46:14.781Z,7.15
2022-12-06T02:48:44.880Z,7.17
2022-12-06T02:51:17.230Z,7.21
2022-12-06T02:53:49.005Z,7.26
2022-12-06T02:56:18.668Z,7.30
2022-12-06T02:58:48.738Z,7.34
2022-12-06T03:01:21.712Z,7.37
2022-12-06T03:04:12.059Z,7.37
2022-12-06T03:07:11.297Z,7.29
2022-12-06T03:09:52.280Z,7.28
2022-12-06T03:12:31.754Z,7.26
2022-12-06T03:15:10.477Z,7.25
2022-12-06T03:17:45.868Z,7.24
2022-12-06T03:20:19.308Z,7.08
2022-12-06T03:22:51.030Z,7.15
2022-12-06T03:25:19.668Z,7.22
2022-12-06T03:27:50.186Z,7.16
2022-12-06T03:30:18.764Z,7.12
2022-12-06T03:32:51.291Z,7.10
2022-12-06T03:35:25.644Z,7.09
2022-12-06T03:37:59.322Z,7.14
2022-12-06T03:40:29.962Z,7.12
2022-12-06T03:42:58.672Z,7.12
2022-12-06T03:45:32.520Z,7.09
2022-12-06T03:48:06.622Z,7.07
2022-12-06T03:50:39.388Z,7.15
2022-12-06T03:53:07.773Z,7.16
2022-12-06T03:55:35.888Z,7.26
2022-12-06T03:58:04.130Z,7.14
2022-12-06T04:00:32.343Z,7.12
2022-12-06T04:03:01.770Z,7.08
2022-12-06T04:05:29.909Z,7.05
2022-12-06T04:07:58.019Z,7.08
2022-12-06T04:10:26.191Z,7.03
2022-12-06T04:13:03.250Z,7.02
2022-12-06T04:15:33.046Z,7.06
2022-12-06T04:18:10.920Z,7.07
2022-12-06T04:21:01.725Z,7.12
2022-12-06T04:23:30.956Z,7.21
2022-12-06T04:25:59.077Z,7.09
2022-12-06T04:28:44.770Z,7.08
2022-12-06T04:31:30.341Z,7.12
2022-12-06T04:34:17.531Z,7.12
2022-12-06T04:37:04.301Z,7.10
2022-12-06T04:39:32.454Z,7.17
2022-12-06T04:42:20.288Z,7.15
2022-12-06T04:44:48.854Z,7.29
2022-12-06T04:47:17.105Z,7.20
2022-12-06T04:49:46.641Z,7.11
2022-12-06T04:52:14.858Z,7.06
2022-12-06T04:54:44.842Z,7.00
2022-12-06T04:57:15.770Z,7.01
2022-12-06T04:59:46.241Z,7.12
2022-12-06T05:02:16.317Z,7.26
2022-12-06T05:04:44.458Z,7.23
2022-12-06T05:07:14.153Z,7.27
2022-12-06T05:09:42.302Z,7.23
2022-12-06T05:12:10.589Z,7.19
2022-12-06T05:14:39.184Z,7.04
2022-12-06T05:17:07.393Z,6.99
2022-12-06T05:19:35.540Z,6.97
2022-12-06T05:22:03.692Z,6.91
2022-12-06T05:24:33.615Z,6.93
2022-12-06T05:27:01.657Z,6.92
2022-12-06T05:29:29.777Z,6.92
2022-12-06T05:31:57.983Z,6.88
2022-12-06T05:34:26.280Z,6.98
2022-12-06T05:36:54.383Z,6.92
2022-12-06T05:39:22.525Z,6.95
2022-12-06T05:41:52.066Z,7.09
2022-12-06T05:44:20.502Z,7.02
2022-12-06T05:46:48.691Z,6.94
2022-12-06T05:49:16.745Z,6.96
2022-12-06T05:51:44.790Z,6.96
2022-12-06T05:54:13.016Z,6.93
2022-12-06T05:56:41.178Z,6.92
2022-12-06T05:59:10.680Z,6.96
2022-12-06T06:01:38.986Z,6.92
2022-12-06T06:04:07.097Z,6.91
2022-12-06T06:06:35.231Z,7.07
2022-12-06T06:09:03.301Z,7.23
2022-12-06T06:11:31.422Z,7.24
2022-12-06T06:13:59.505Z,7.31
2022-12-06T06:16:29.127Z,7.28
2022-12-06T06:18:57.332Z,7.16
2022-12-06T06:21:25.494Z,7.11
2022-12-06T06:23:53.763Z,7.07
2022-12-06T06:26:22.085Z,7.03
2022-12-06T06:28:50.796Z,7.03
2022-12-06T06:31:19.154Z,7.05
2022-12-06T06:33:49.025Z,7.15
2022-12-06T06:36:17.258Z,7.34
2022-12-06T06:38:45.393Z,7.44
2022-12-06T06:41:13.557Z,7.40
2022-12-06T06:43:41.909Z,7.32
2022-12-06T06:46:11.865Z,7.27
2022-12-06T06:48:41.374Z,7.20
2022-12-06T06:51:12.409Z,7.18
2022-12-06T06:53:41.000Z,7.31
2022-12-06T06:56:09.958Z,7.44
2022-12-06T06:58:38.524Z,7.53
2022-12-06T07:01:08.955Z,7.55
2022-12-06T07:03:37.092Z,7.63
2022-12-06T07:06:09.307Z,7.74
2022-12-06T07:08:39.634Z,7.81
2022-12-06T07:11:07.771Z,7.74
2022-12-06T07:13:37.984Z,7.82
2022-12-06T07:16:08.171Z,7.99
2022-12-06T07:18:36.334Z,7.94
2022-12-06T07:21:06.027Z,8.02
2022-12-06T07:23:35.593Z,7.92
2022-12-06T07:26:08.045Z,7.79
2022-12-06T07:28:37.246Z,7.91
2022-12-06T07:31:12.881Z,7.92
2022-12-06T07:33:41.471Z,7.96
2022-12-06T07:36:12.869Z,7.88
2022-12-06T07:38:42.214Z,8.02
2022-12-06T07:41:31.219Z,8.10
2022-12-06T07:44:17.722Z,8.11
2022-12-06T07:46:46.354Z,8.22
2022-12-06T07:49:15.793Z,8.43
2022-12-06T07:51:43.987Z,8.44
2022-12-06T07:54:12.138Z,8.41
2022-12-06T07:56:42.246Z,8.51
2022-12-06T07:59:10.640Z,8.48
2022-12-06T08:01:38.793Z,8.48
2022-12-06T08:04:07.942Z,8.53
2022-12-06T08:06:36.521Z,8.63
2022-12-06T08:09:05.178Z,8.97
2022-12-06T08:11:33.333Z,9.07
2022-12-06T08:14:03.027Z,9.07
2022-12-06T08:16:31.080Z,8.96
2022-12-06T08:18:59.296Z,9.03
2022-12-06T08:21:27.406Z,9.03
2022-12-06T08:23:56.755Z,9.22
2022-12-06T08:26:25.281Z,9.15
2022-12-06T08:28:53.672Z,9.29
2022-12-06T08:31:25.202Z,9.23
2022-12-06T08:33:53.489Z,9.57
2022-12-06T08:36:23.684Z,9.61
2022-12-06T08:38:52.488Z,9.56
2022-12-06T08:41:38.954Z,9.70
2022-12-06T08:44:07.663Z,9.81
2022-12-06T08:46:37.321Z,9.78
2022-12-06T08:49:06.160Z,9.82
2022-12-06T08:51:36.223Z,9.51
2022-12-06T08:54:06.172Z,9.25
2022-12-06T08:56:34.408Z,9.15
2022-12-06T08:59:02.704Z,9.01
2022-12-06T09:01:37.407Z,9.20
2022-12-06T09:04:09.107Z,9.34
2022-12-06T09:06:40.017Z,9.35
2022-12-06T09:09:09.979Z,9.61
2022-12-06T09:11:39.144Z,9.73
2022-12-06T09:14:09.321Z,9.79
2022-12-06T09:16:37.915Z,9.75
2022-12-06T09:19:07.317Z,9.82
2022-12-06T09:21:35.340Z,9.77
2022-12-06T09:24:03.465Z,9.72
2022-12-06T09:26:31.543Z,9.78
2022-12-06T09:29:00.368Z,9.71
2022-12-06T09:31:28.498Z,9.51
2022-12-06T09:33:56.927Z,9.42
2022-12-06T09:36:29.160Z,9.43
2022-12-06T09:39:00.897Z,9.55
2022-12-06T09:42:11.650Z,9.51
2022-12-06T09:45:13.338Z,9.54
2022-12-06T09:47:59.252Z,9.48
2022-12-06T09:50:40.764Z,9.35
2022-12-06T09:53:21.242Z,9.23
2022-12-06T09:55:59.389Z,9.57
2022-12-06T09:58:41.712Z,9.84
2022-12-06T10:01:19.911Z,9.65
2022-12-06T10:04:27.951Z,9.38
2022-12-06T10:07:05.470Z,9.22
2022-12-06T10:09:47.795Z,9.06
2022-12-06T10:12:28.779Z,9.06
2022-12-06T10:15:14.448Z,9.19
2022-12-06T10:17:52.669Z,8.93
2022-12-06T10:20:31.113Z,9.01
2022-12-06T10:23:12.657Z,9.05
2022-12-06T10:25:48.071Z,9.21
2022-12-06T10:28:25.559Z,9.34
2022-12-06T10:31:03.088Z,9.51
2022-12-06T10:33:39.780Z,9.54
2022-12-06T10:36:11.155Z,9.87
2022-12-06T10:38:44.843Z,9.71
2022-12-06T10:41:21.319Z,9.41
2022-12-06T10:43:55.642Z,9.70
2022-12-06T10:46:49.274Z,9.77
2022-12-06T10:49:26.318Z,9.64
2022-12-06T10:52:00.091Z,9.82
2022-12-06T10:54:34.519Z,9.86
2022-12-06T10:57:08.685Z,9.77
2022-12-06T10:59:42.396Z,9.85
2022-12-06T11:02:23.202Z,10.02
2022-12-06T11:04:54.349Z,10.03
2022-12-06T11:07:26.718Z,9.92
2022-12-06T11:09:57.683Z,9.78
2022-12-06T11:12:32.738Z,9.90
2022-12-06T11:15:08.466Z,9.88
2022-12-06T11:17:43.478Z,9.88
2022-12-06T11:20:24.014Z,9.97
2022-12-06T11:23:06.097Z,10.02
2022-12-06T11:25:43.496Z,10.11
2022-12-06T11:28:29.504Z,9.90
2022-12-06T11:30:58.727Z,9.80
2022-12-06T11:33:32.115Z,9.54
2022-12-06T11:36:03.777Z,9.56
2022-12-06T11:38:32.566Z,9.55
2022-12-06T11:41:01.023Z,9.56
2022-12-06T11:43:35.411Z,9.61
2022-12-06T11:46:05.471Z,9.89
2022-12-06T11:48:36.898Z,10.05
2022-12-06T11:51:05.284Z,10.06
2022-12-06T11:53:38.170Z,10.07
2022-12-06T11:56:14.556Z,10.07
2022-12-06T11:58:52.249Z,10.11
2022-12-06T12:01:20.334Z,10.19
2022-12-06T12:03:48.840Z,10.30
2022-12-06T12:06:21.377Z,10.26
2022-12-06T12:08:59.674Z,10.25
2022-12-06T12:11:30.730Z,10.35
2022-12-06T12:14:04.929Z,10.44
2022-12-06T12:16:37.260Z,10.48
2022-12-06T12:19:25.281Z,10.57
2022-12-06T12:21:55.480Z,10.54
2022-12-06T12:27:45.149Z,10.68
2022-12-06T12:30:36.990Z,10.75
2022-12-06T12:33:21.136Z,10.66
2022-12-06T12:35:55.600Z,10.58
2022-12-06T12:38:38.221Z,10.64
2022-12-06T12:41:24.821Z,10.60
2022-12-06T12:46:57.237Z,10.53
2022-12-06T12:49:29.560Z,10.60
2022-12-06T12:51:58.686Z,10.48
2022-12-06T12:54:30.593Z,10.39
2022-12-06T12:57:00.376Z,10.19
2022-12-06T12:59:34.332Z,10.01
2022-12-06T13:02:13.176Z,10.01
2022-12-06T13:04:45.999Z,10.17
2022-12-06T13:07:22.271Z,10.23
2022-12-06T13:09:58.131Z,10.20
2022-12-06T13:12:32.430Z,10.31
2022-12-06T13:15:05.295Z,10.28
2022-12-06T13:17:38.801Z,10.26
2022-12-06T13:20:24.024Z,10.25
2022-12-06T13:22:55.629Z,10.27
2022-12-06T13:25:24.043Z,10.12
2022-12-06T13:27:55.154Z,10.11
2022-12-06T13:30:25.650Z,10.07
2022-12-06T13:32:59.610Z,10.01
2022-12-06T13:35:32.203Z,9.97
2022-12-06T13:38:01.883Z,9.88
2022-12-06T13:40:46.532Z,9.83
2022-12-06T13:43:57.628Z,9.73
2022-12-06T13:46:34.436Z,9.74
2022-12-06T13:49:06.740Z,9.73
2022-12-06T13:51:47.555Z,9.73
2022-12-06T13:54:36.529Z,9.65
2022-12-06T13:57:22.955Z,9.65
2022-12-06T13:59:51.166Z,9.59
2022-12-06T14:02:52.728Z,9.59
2022-12-06T14:06:06.006Z,9.50
2022-12-06T14:08:42.696Z,9.46
2022-12-06T14:11:22.308Z,9.44
2022-12-06T14:14:01.295Z,9.35
2022-12-06T14:16:35.413Z,9.39
2022-12-06T14:19:13.738Z,9.35
2022-12-06T14:21:51.298Z,9.34
2022-12-06T14:24:34.939Z,9.23
2022-12-06T14:27:08.499Z,9.13
2022-12-06T14:29:36.780Z,9.16
2022-12-06T14:32:04.971Z,9.16
2022-12-06T14:34:35.252Z,9.09
2022-12-06T14:37:20.211Z,9.06
2022-12-06T14:39:53.532Z,9.08
2022-12-06T14:42:40.661Z,9.05
2022-12-06T14:45:15.660Z,8.98
2022-12-06T14:47:45.282Z,8.94
2022-12-06T14:50:28.371Z,8.93
2022-12-06T14:53:03.721Z,8.95
2022-12-06T14:55:34.157Z,9.03
2022-12-06T14:58:04.257Z,8.99
2022-12-06T15:00:37.576Z,8.88
2022-12-06T15:03:23.890Z,8.82
2022-12-06T15:06:13.187Z,8.86
2022-12-06T15:08:44.246Z,8.89
2022-12-06T15:11:45.370Z,8.85
2022-12-06T15:14:15.907Z,8.81
2022-12-06T15:16:46.604Z,8.85
2022-12-06T15:19:18.659Z,8.88
2022-12-06T15:21:46.884Z,8.88
2022-12-06T15:24:21.662Z,8.92
2022-12-06T15:26:49.939Z,8.98
2022-12-06T15:29:18.707Z,8.91
2022-12-06T15:31:50.606Z,8.90
2022-12-06T15:34:25.903Z,8.90
2022-12-06T15:37:15.239Z,8.75
2022-12-06T15:39:45.635Z,8.64
2022-12-06T15:42:20.682Z,8.65
2022-12-06T15:44:52.004Z,8.62
2022-12-06T15:47:20.701Z,8.62
2022-12-06T15:49:51.026Z,8.71
2022-12-06T15:52:24.475Z,8.74
2022-12-06T15:54:53.955Z,8.78
2022-12-06T15:57:22.028Z,8.78
2022-12-06T15:59:50.222Z,8.78
2022-12-06T16:02:19.622Z,8.76
2022-12-06T16:04:51.095Z,8.72
2022-12-06T16:07:19.764Z,8.69
2022-12-06T16:09:48.517Z,8.68
2022-12-06T16:12:18.182Z,8.67
2022-12-06T16:14:46.379Z,8.66
2022-12-06T16:17:14.451Z,8.63
2022-12-06T16:20:08.936Z,8.58
2022-12-06T16:22:54.353Z,8.55
2022-12-06T16:25:22.507Z,8.55
2022-12-06T16:27:52.249Z,8.54
2022-12-06T16:30:32.756Z,8.51
2022-12-06T16:33:07.153Z,8.49
2022-12-06T16:35:36.142Z,8.45
2022-12-06T16:38:04.259Z,8.44
2022-12-06T16:40:34.059Z,8.43
2022-12-06T16:43:03.720Z,8.57
2022-12-06T16:45:33.287Z,8.56
2022-12-06T16:48:01.468Z,8.52
2022-12-06T16:50:29.777Z,8.53
2022-12-06T16:52:57.888Z,8.51
2022-12-06T16:55:26.071Z,8.46
2022-12-06T16:57:54.331Z,8.42
2022-12-06T17:00:24.465Z,8.43
2022-12-06T17:02:52.676Z,8.44
2022-12-06T17:05:23.901Z,8.38
2022-12-06T17:07:52.530Z,8.39
2022-12-06T17:10:21.751Z,8.38
2022-12-06T17:12:50.949Z,8.37
2022-12-06T17:15:21.144Z,8.32
2022-12-06T17:17:50.981Z,8.30
2022-12-06T17:20:19.875Z,8.31
2022-12-06T17:22:48.362Z,8.29
2022-12-06T17:25:17.507Z,8.23
2022-12-06T17:27:46.036Z,8.26
2022-12-06T17:30:18.027Z,8.26
2022-12-06T17:32:48.037Z,8.19
2022-12-06T17:35:17.712Z,8.11
2022-12-06T17:37:45.781Z,8.09
2022-12-06T17:40:14.924Z,8.08
2022-12-06T17:43:01.088Z,8.06
2022-12-06T17:45:29.205Z,8.02
2022-12-06T17:47:57.452Z,7.95
2022-12-06T17:50:27.048Z,7.91
2022-12-06T17:52:55.159Z,7.86
2022-12-06T17:55:23.225Z,7.81
2022-12-06T17:57:51.276Z,7.80
2022-12-06T18:00:19.983Z,7.80
2022-12-06T18:02:48.761Z,7.72
2022-12-06T18:05:17.441Z,7.73
2022-12-06T18:07:47.092Z,7.66
2022-12-06T18:10:15.217Z,7.71
2022-12-06T18:12:43.832Z,7.68
2022-12-06T18:15:33.229Z,7.60
2022-12-06T18:18:01.369Z,7.60
2022-12-06T18:20:29.505Z,7.57
2022-12-06T18:22:58.967Z,7.63
2022-12-06T18:25:26.961Z,7.58
2022-12-06T18:27:54.989Z,7.58
2022-12-06T18:30:23.097Z,7.63
2022-12-06T18:32:51.382Z,7.64
2022-12-06T18:35:19.552Z,7.56
2022-12-06T18:37:47.709Z,7.55
2022-12-06T18:40:17.250Z,7.53
2022-12-06T18:42:45.413Z,7.53
2022-12-06T18:45:13.565Z,7.46
2022-12-06T18:47:41.806Z,7.50
2022-12-06T18:50:10.655Z,7.48
2022-12-06T18:52:38.793Z,7.45
2022-12-06T18:55:08.027Z,7.45
2022-12-06T18:57:39.702Z,7.37
2022-12-06T19:00:09.068Z,7.31
2022-12-06T19:02:37.278Z,7.27
2022-12-06T19:05:06.177Z,7.17
2022-12-06T19:07:35.081Z,7.20
2022-12-06T19:10:03.557Z,7.28
2022-12-06T19:12:31.931Z,7.35
2022-12-06T19:15:01.432Z,7.27
2022-12-06T19:17:29.748Z,7.22
2022-12-06T19:19:57.960Z,7.15
2022-12-06T19:22:26.329Z,7.10
2022-12-06T19:24:54.436Z,7.08
2022-12-06T19:27:22.583Z,7.05
2022-12-06T19:29:50.807Z,7.02
2022-12-06T19:32:20.324Z,7.07
2022-12-06T19:34:48.547Z,7.05
2022-12-06T19:37:17.531Z,7.02
2022-12-06T19:39:46.026Z,6.99
2022-12-06T19:42:31.746Z,7.02
2022-12-06T19:44:59.847Z,6.95
2022-12-06T19:47:29.469Z,6.94
2022-12-06T19:49:58.732Z,6.89
2022-12-06T19:52:30.822Z,6.85
2022-12-06T19:54:59.477Z,6.80
2022-12-06T19:57:27.767Z,6.77
2022-12-06T19:59:56.569Z,6.73
2022-12-06T20:02:24.888Z,6.68
2022-12-06T20:04:54.440Z,6.63
2022-12-06T20:07:22.619Z,6.64
2022-12-06T20:09:50.768Z,6.59
2022-12-06T20:12:18.928Z,6.55
2022-12-06T20:14:52.514Z,6.50
2022-12-06T20:17:23.790Z,6.47
2022-12-06T20:19:52.079Z,6.47
2022-12-06T20:22:22.835Z,6.49
2022-12-06T20:24:51.082Z,6.48
2022-12-06T20:27:39.245Z,6.44
2022-12-06T20:30:08.522Z,6.43
2022-12-06T20:32:36.591Z,6.47
2022-12-06T20:35:06.090Z,6.62
2022-12-06T20:37:35.702Z,6.65
2022-12-06T20:40:06.277Z,6.85
2022-12-06T20:42:34.933Z,6.82
2022-12-06T20:45:03.083Z,6.81
2022-12-06T20:47:31.182Z,6.78
2022-12-06T20:49:59.595Z,6.65
2022-12-06T20:52:27.995Z,6.61
2022-12-06T20:54:57.422Z,6.67
2022-12-06T20:57:25.599Z,6.61
2022-12-06T20:59:53.813Z,6.67
2022-12-06T21:02:22.016Z,6.62
2022-12-06T21:04:50.345Z,6.64
2022-12-06T21:07:19.160Z,6.60
2022-12-06T21:09:47.920Z,6.42
2022-12-06T21:12:20.261Z,6.35
2022-12-06T21:14:48.436Z,6.25
2022-12-06T21:17:16.738Z,6.19
2022-12-06T21:19:45.308Z,6.23
2022-12-06T21:22:15.134Z,6.13
2022-12-06T21:24:44.087Z,6.06
2022-12-06T21:27:12.306Z,6.06
2022-12-06T21:29:42.695Z,6.15
2022-12-06T21:32:10.770Z,6.14
2022-12-06T21:34:46.040Z,6.15
2022-12-06T21:37:14.685Z,6.06
2022-12-06T21:39:46.472Z,6.03
2022-12-06T21:42:15.899Z,5.96
2022-12-06T21:44:45.467Z,5.93
2022-12-06T21:47:13.706Z,5.96
2022-12-06T21:49:42.454Z,5.89
2022-12-06T21:52:10.566Z,5.85
2022-12-06T21:54:38.741Z,5.80
2022-12-06T21:57:06.922Z,5.77
2022-12-06T21:59:35.061Z,5.62
2022-12-06T22:02:04.657Z,5.56
2022-12-06T22:04:32.855Z,5.57
2022-12-06T22:07:01.128Z,5.58
2022-12-06T22:09:31.327Z,5.63
2022-12-06T22:11:59.499Z,5.74
2022-12-06T22:14:27.706Z,5.64
2022-12-06T22:16:55.889Z,5.75
2022-12-06T22:19:25.481Z,5.85
2022-12-06T22:21:56.080Z,5.78
2022-12-06T22:24:24.473Z,5.69
2022-12-06T22:26:52.523Z,5.55
2022-12-06T22:29:20.554Z,5.51
2022-12-06T22:31:48.684Z,5.45
2022-12-06T22:34:16.683Z,5.55
2022-12-06T22:36:46.300Z,5.60
2022-12-06T22:39:14.329Z,5.46
2022-12-06T22:41:42.696Z,5.50
2022-12-06T22:44:13.027Z,5.49
2022-12-06T22:46:41.525Z,5.45
2022-12-06T22:49:12.612Z,5.33
2022-12-06T22:51:45.923Z,5.27
2022-12-06T22:54:15.400Z,5.35
2022-12-06T22:56:48.466Z,5.30
2022-12-06T22:59:18.068Z,5.19
2022-12-06T23:01:46.316Z,5.21
2022-12-06T23:04:14.543Z,5.27
2022-12-06T23:06:42.751Z,5.34
2022-12-06T23:09:16.821Z,5.26
2022-12-06T23:11:45.301Z,5.14
2022-12-06T23:14:13.640Z,5.03
2022-12-06T23:16:43.843Z,5.00
2022-12-06T23:19:12.086Z,4.98
2022-12-06T23:21:40.964Z,4.95
2022-12-06T23:24:12.318Z,4.95
2022-12-06T23:26:44.147Z,4.89
2022-12-06T23:29:13.067Z,4.90
2022-12-06T23:31:43.012Z,4.90
2022-12-06T23:34:16.061Z,4.96
2022-12-06T23:36:44.885Z,4.96
2022-12-06T23:39:13.571Z,4.85
2022-12-06T23:41:43.589Z,4.80
2022-12-06T23:44:13.751Z,4.79
2022-12-06T23:46:43.924Z,4.74
2022-12-06T23:49:17.640Z,4.75
2022-12-06T23:51:46.576Z,4.73
2022-12-06T23:54:15.964Z,4.73
2022-12-06T23:56:46.800Z,4.72
2022-12-06T23:59:16.339Z,4.62
